McGrath, Minnesota
Current Conditions -  °F | °C
As of 6:13 PM on Wednesday 28 Jan 2015 (Local Time) from K04W Reporting Station
Haze Haze  
Wind Chill: 30°   Ceiling: 1100
Heat Index: 30°   Visibility: 5mi
Dew Point: 28°   Wind: 0mph
Humidity: 93%   Direction: NA
Pressure: 29.83"   Gusts: NA
Location:  46.24°N, 93.27°W
Report Text: K04W 290013Z AUTO 00000KT 5SM BR OVC011 M01/M02 A2983 RMK AO2
Loading
Personal Weather Stations






























Interactive Weather Map New forecast layout! Learn more

10-Day Weather Forecast

Advertisements
Track Severe Weather on mobile